sensor_id;sensor_type;location;lat;lon;timestamp;P1;durP1;ratioP1;P2;durP2;ratioP2
36833;SDS011;48003;52.084;5.224;2023-02-28T00:01:10;10.6;;;4.7;;
36833;SDS011;48003;52.084;5.224;2023-02-28T00:02:47;9.31;;;4.5;;
36833;SDS011;48003;52.084;5.224;2023-02-28T00:04:24;8.71;;;4.8;;
36833;SDS011;48003;52.084;5.224;2023-02-28T00:07:37;9.1;;;4.61;;
36833;SDS011;48003;52.084;5.224;2023-02-28T00:09:14;10.6;;;4.41;;
36833;SDS011;48003;52.084;5.224;2023-02-28T00:10:50;8.31;;;4.0;;
36833;SDS011;48003;52.084;5.224;2023-02-28T00:12:26;6.6;;;3.1;;
36833;SDS011;48003;52.084;5.224;2023-02-28T00:15:39;7.8;;;3.1;;
36833;SDS011;48003;52.084;5.224;2023-02-28T00:17:15;6.6;;;3.3;;
36833;SDS011;48003;52.084;5.224;2023-02-28T00:18:51;8.6;;;3.5;;
36833;SDS011;48003;52.084;5.224;2023-02-28T00:22:03;9.71;;;3.7;;
36833;SDS011;48003;52.084;5.224;2023-02-28T00:23:39;7.4;;;3.3;;
36833;SDS011;48003;52.084;5.224;2023-02-28T00:25:17;6.7;;;3.4;;
36833;SDS011;48003;52.084;5.224;2023-02-28T00:28:32;6.4;;;3.5;;
36833;SDS011;48003;52.084;5.224;2023-02-28T00:30:09;8.71;;;3.6;;
36833;SDS011;48003;52.084;5.224;2023-02-28T00:31:51;7.4;;;3.2;;
36833;SDS011;48003;52.084;5.224;2023-02-28T00:33:27;7.2;;;3.5;;
36833;SDS011;48003;52.084;5.224;2023-02-28T00:36:42;8.31;;;3.7;;
36833;SDS011;48003;52.084;5.224;2023-02-28T00:38:18;8.0;;;3.4;;
36833;SDS011;48003;52.084;5.224;2023-02-28T00:39:56;9.4;;;4.1;;
36833;SDS011;48003;52.084;5.224;2023-02-28T00:43:08;8.1;;;3.8;;
36833;SDS011;48003;52.084;5.224;2023-02-28T00:44:44;6.1;;;3.7;;
36833;SDS011;48003;52.084;5.224;2023-02-28T00:46:20;8.5;;;3.7;;
36833;SDS011;48003;52.084;5.224;2023-02-28T00:49:33;6.6;;;3.9;;
36833;SDS011;48003;52.084;5.224;2023-02-28T00:51:09;8.81;;;3.7;;
36833;SDS011;48003;52.084;5.224;2023-02-28T00:52:45;6.8;;;3.7;;
36833;SDS011;48003;52.084;5.224;2023-02-28T00:54:22;8.4;;;3.9;;
36833;SDS011;48003;52.084;5.224;2023-02-28T00:57:35;9.1;;;3.7;;
36833;SDS011;48003;52.084;5.224;2023-02-28T00:59:11;9.1;;;3.7;;
36833;SDS011;48003;52.084;5.224;2023-02-28T01:00:49;6.3;;;3.4;;
36833;SDS011;48003;52.084;5.224;2023-02-28T01:04:02;9.81;;;3.7;;
36833;SDS011;48003;52.084;5.224;2023-02-28T01:05:38;9.0;;;3.9;;
36833;SDS011;48003;52.084;5.224;2023-02-28T01:07:14;7.2;;;3.5;;
36833;SDS011;48003;52.084;5.224;2023-02-28T01:10:27;8.4;;;3.7;;
36833;SDS011;48003;52.084;5.224;2023-02-28T01:12:04;6.4;;;3.1;;
36833;SDS011;48003;52.084;5.224;2023-02-28T01:13:40;8.31;;;3.6;;
36833;SDS011;48003;52.084;5.224;2023-02-28T01:15:17;9.21;;;3.6;;
36833;SDS011;48003;52.084;5.224;2023-02-28T01:18:29;6.3;;;3.5;;
36833;SDS011;48003;52.084;5.224;2023-02-28T01:20:06;8.1;;;3.1;;
36833;SDS011;48003;52.084;5.224;2023-02-28T01:21:42;9.4;;;3.2;;
36833;SDS011;48003;52.084;5.224;2023-02-28T01:24:56;8.31;;;3.3;;
36833;SDS011;48003;52.084;5.224;2023-02-28T01:26:32;9.6;;;3.2;;
36833;SDS011;48003;52.084;5.224;2023-02-28T01:28:08;7.8;;;3.5;;
36833;SDS011;48003;52.084;5.224;2023-02-28T01:31:20;9.71;;;3.5;;
36833;SDS011;48003;52.084;5.224;2023-02-28T01:32:58;9.21;;;3.6;;
36833;SDS011;48003;52.084;5.224;2023-02-28T01:34:35;6.7;;;3.3;;
36833;SDS011;48003;52.084;5.224;2023-02-28T01:36:12;6.5;;;3.5;;
36833;SDS011;48003;52.084;5.224;2023-02-28T01:39:27;5.11;;;3.0;;
36833;SDS011;48003;52.084;5.224;2023-02-28T01:41:03;7.3;;;3.5;;
36833;SDS011;48003;52.084;5.224;2023-02-28T01:42:40;7.5;;;3.5;;
36833;SDS011;48003;52.084;5.224;2023-02-28T01:47:01;8.31;;;3.4;;
36833;SDS011;48003;52.084;5.224;2023-02-28T01:48:38;5.7;;;3.2;;
36833;SDS011;48003;52.084;5.224;2023-02-28T01:51:58;7.4;;;3.2;;
36833;SDS011;48003;52.084;5.224;2023-02-28T01:53:35;7.4;;;3.4;;
36833;SDS011;48003;52.084;5.224;2023-02-28T01:55:18;8.4;;;3.6;;
36833;SDS011;48003;52.084;5.224;2023-02-28T01:58:40;7.1;;;3.5;;
36833;SDS011;48003;52.084;5.224;2023-02-28T02:00:18;6.8;;;3.8;;
36833;SDS011;48003;52.084;5.224;2023-02-28T02:01:59;7.8;;;3.5;;
36833;SDS011;48003;52.084;5.224;2023-02-28T02:03:36;8.0;;;3.2;;
36833;SDS011;48003;52.084;5.224;2023-02-28T02:06:53;7.7;;;3.4;;
36833;SDS011;48003;52.084;5.224;2023-02-28T02:08:30;9.31;;;3.4;;
36833;SDS011;48003;52.084;5.224;2023-02-28T02:10:10;6.8;;;3.3;;
36833;SDS011;48003;52.084;5.224;2023-02-28T02:11:51;8.0;;;3.3;;
36833;SDS011;48003;52.084;5.224;2023-02-28T02:15:29;8.4;;;3.2;;
36833;SDS011;48003;52.084;5.224;2023-02-28T02:17:14;7.9;;;3.2;;
36833;SDS011;48003;52.084;5.224;2023-02-28T02:19:02;7.9;;;3.4;;
36833;SDS011;48003;52.084;5.224;2023-02-28T02:22:37;7.7;;;3.5;;
36833;SDS011;48003;52.084;5.224;2023-02-28T02:25:10;7.2;;;3.1;;
36833;SDS011;48003;52.084;5.224;2023-02-28T02:26:57;7.6;;;3.4;;
36833;SDS011;48003;52.084;5.224;2023-02-28T02:29:51;8.9;;;3.4;;
36833;SDS011;48003;52.084;5.224;2023-02-28T02:32:11;7.1;;;3.3;;
36833;SDS011;48003;52.084;5.224;2023-02-28T02:35:27;6.3;;;3.4;;
36833;SDS011;48003;52.084;5.224;2023-02-28T02:37:12;5.6;;;3.3;;
36833;SDS011;48003;52.084;5.224;2023-02-28T02:38:56;8.81;;;3.4;;
36833;SDS011;48003;52.084;5.224;2023-02-28T02:42:31;6.4;;;3.1;;
36833;SDS011;48003;52.084;5.224;2023-02-28T02:44:17;7.6;;;3.7;;
36833;SDS011;48003;52.084;5.224;2023-02-28T02:45:58;8.31;;;3.0;;
36833;SDS011;48003;52.084;5.224;2023-02-28T02:47:40;9.0;;;3.5;;
36833;SDS011;48003;52.084;5.224;2023-02-28T02:49:20;7.3;;;3.5;;
36833;SDS011;48003;52.084;5.224;2023-02-28T02:52:42;6.7;;;3.2;;
36833;SDS011;48003;52.084;5.224;2023-02-28T02:54:33;8.71;;;3.5;;
36833;SDS011;48003;52.084;5.224;2023-02-28T02:56:12;6.2;;;3.5;;
36833;SDS011;48003;52.084;5.224;2023-02-28T02:57:51;8.0;;;3.3;;
36833;SDS011;48003;52.084;5.224;2023-02-28T03:01:14;5.8;;;3.3;;
36833;SDS011;48003;52.084;5.224;2023-02-28T03:02:54;7.1;;;3.5;;
36833;SDS011;48003;52.084;5.224;2023-02-28T03:04:33;7.9;;;3.2;;
36833;SDS011;48003;52.084;5.224;2023-02-28T03:06:17;8.6;;;3.6;;
36833;SDS011;48003;52.084;5.224;2023-02-28T03:09:32;8.71;;;3.7;;
36833;SDS011;48003;52.084;5.224;2023-02-28T03:11:12;6.0;;;3.4;;
36833;SDS011;48003;52.084;5.224;2023-02-28T03:12:52;5.9;;;3.0;;
36833;SDS011;48003;52.084;5.224;2023-02-28T03:14:42;5.9;;;3.4;;
36833;SDS011;48003;52.084;5.224;2023-02-28T03:16:33;7.9;;;3.4;;
36833;SDS011;48003;52.084;5.224;2023-02-28T03:20:05;7.1;;;3.2;;
36833;SDS011;48003;52.084;5.224;2023-02-28T03:21:54;8.1;;;3.5;;
36833;SDS011;48003;52.084;5.224;2023-02-28T03:23:42;6.8;;;3.4;;
36833;SDS011;48003;52.084;5.224;2023-02-28T03:25:27;7.1;;;3.1;;
36833;SDS011;48003;52.084;5.224;2023-02-28T03:27:14;13.1;;;3.5;;
36833;SDS011;48003;52.084;5.224;2023-02-28T03:30:42;6.9;;;2.8;;
36833;SDS011;48003;52.084;5.224;2023-02-28T03:32:26;6.1;;;3.3;;
36833;SDS011;48003;52.084;5.224;2023-02-28T03:34:10;5.7;;;3.0;;
36833;SDS011;48003;52.084;5.224;2023-02-28T03:35:54;10.1;;;3.3;;
36833;SDS011;48003;52.084;5.224;2023-02-28T03:37:36;5.6;;;3.1;;
36833;SDS011;48003;52.084;5.224;2023-02-28T03:40:58;7.8;;;3.3;;
36833;SDS011;48003;52.084;5.224;2023-02-28T03:42:42;7.9;;;3.4;;
36833;SDS011;48003;52.084;5.224;2023-02-28T03:44:22;5.5;;;3.0;;
36833;SDS011;48003;52.084;5.224;2023-02-28T03:46:06;6.6;;;2.9;;
36833;SDS011;48003;52.084;5.224;2023-02-28T03:49:30;7.3;;;3.0;;
36833;SDS011;48003;52.084;5.224;2023-02-28T03:51:11;7.0;;;3.3;;
36833;SDS011;48003;52.084;5.224;2023-02-28T03:52:53;8.71;;;3.2;;
36833;SDS011;48003;52.084;5.224;2023-02-28T03:54:38;7.4;;;3.1;;
36833;SDS011;48003;52.084;5.224;2023-02-28T03:56:22;9.31;;;3.4;;
36833;SDS011;48003;52.084;5.224;2023-02-28T03:59:52;7.2;;;3.1;;
36833;SDS011;48003;52.084;5.224;2023-02-28T04:01:36;9.1;;;3.4;;
36833;SDS011;48003;52.084;5.224;2023-02-28T04:03:16;7.2;;;3.0;;
36833;SDS011;48003;52.084;5.224;2023-02-28T04:04:52;7.8;;;3.5;;
36833;SDS011;48003;52.084;5.224;2023-02-28T04:08:08;7.5;;;3.0;;
36833;SDS011;48003;52.084;5.224;2023-02-28T04:09:44;7.1;;;3.1;;
36833;SDS011;48003;52.084;5.224;2023-02-28T04:11:22;7.6;;;3.3;;
36833;SDS011;48003;52.084;5.224;2023-02-28T04:13:02;5.9;;;3.5;;
36833;SDS011;48003;52.084;5.224;2023-02-28T04:16:14;6.0;;;3.1;;
36833;SDS011;48003;52.084;5.224;2023-02-28T04:17:51;6.0;;;3.5;;
36833;SDS011;48003;52.084;5.224;2023-02-28T04:19:28;8.5;;;3.9;;
36833;SDS011;48003;52.084;5.224;2023-02-28T04:22:41;6.0;;;3.4;;
36833;SDS011;48003;52.084;5.224;2023-02-28T04:24:18;8.31;;;3.9;;
36833;SDS011;48003;52.084;5.224;2023-02-28T04:25:56;7.2;;;3.5;;
36833;SDS011;48003;52.084;5.224;2023-02-28T04:29:10;8.1;;;3.7;;
36833;SDS011;48003;52.084;5.224;2023-02-28T04:30:53;8.4;;;4.0;;
36833;SDS011;48003;52.084;5.224;2023-02-28T04:32:31;6.7;;;3.8;;
36833;SDS011;48003;52.084;5.224;2023-02-28T04:34:07;8.1;;;3.9;;
36833;SDS011;48003;52.084;5.224;2023-02-28T04:37:19;8.2;;;3.8;;
36833;SDS011;48003;52.084;5.224;2023-02-28T04:38:56;6.2;;;3.2;;
36833;SDS011;48003;52.084;5.224;2023-02-28T04:40:32;7.1;;;3.5;;
36833;SDS011;48003;52.084;5.224;2023-02-28T04:43:46;7.3;;;3.7;;
36833;SDS011;48003;52.084;5.224;2023-02-28T04:45:22;6.7;;;3.5;;
36833;SDS011;48003;52.084;5.224;2023-02-28T04:46:58;8.1;;;3.9;;
36833;SDS011;48003;52.084;5.224;2023-02-28T04:48:35;8.1;;;3.9;;
36833;SDS011;48003;52.084;5.224;2023-02-28T04:51:50;6.4;;;3.3;;
36833;SDS011;48003;52.084;5.224;2023-02-28T04:53:26;7.4;;;3.5;;
36833;SDS011;48003;52.084;5.224;2023-02-28T04:55:04;5.7;;;3.0;;
36833;SDS011;48003;52.084;5.224;2023-02-28T04:58:18;6.3;;;3.1;;
36833;SDS011;48003;52.084;5.224;2023-02-28T04:59:54;5.3;;;3.1;;
36833;SDS011;48003;52.084;5.224;2023-02-28T05:01:31;5.7;;;3.2;;
36833;SDS011;48003;52.084;5.224;2023-02-28T05:04:45;5.4;;;3.1;;
36833;SDS011;48003;52.084;5.224;2023-02-28T05:06:22;5.2;;;3.1;;
36833;SDS011;48003;52.084;5.224;2023-02-28T05:07:59;7.5;;;3.3;;
36833;SDS011;48003;52.084;5.224;2023-02-28T05:09:35;6.5;;;3.0;;
36833;SDS011;48003;52.084;5.224;2023-02-28T05:12:52;6.2;;;3.2;;
36833;SDS011;48003;52.084;5.224;2023-02-28T05:14:28;5.8;;;3.4;;
36833;SDS011;48003;52.084;5.224;2023-02-28T05:16:05;4.91;;;3.1;;
36833;SDS011;48003;52.084;5.224;2023-02-28T05:19:19;14.6;;;3.2;;
36833;SDS011;48003;52.084;5.224;2023-02-28T05:20:55;4.7;;;2.5;;
36833;SDS011;48003;52.084;5.224;2023-02-28T05:22:31;4.3;;;2.5;;
36833;SDS011;48003;52.084;5.224;2023-02-28T05:24:09;4.8;;;2.6;;
36833;SDS011;48003;52.084;5.224;2023-02-28T05:27:23;6.5;;;3.0;;
36833;SDS011;48003;52.084;5.224;2023-02-28T05:30:36;4.7;;;2.5;;
36833;SDS011;48003;52.084;5.224;2023-02-28T05:33:49;7.6;;;3.1;;
36833;SDS011;48003;52.084;5.224;2023-02-28T05:35:26;4.41;;;2.5;;
36833;SDS011;48003;52.084;5.224;2023-02-28T05:37:02;4.91;;;2.5;;
36833;SDS011;48003;52.084;5.224;2023-02-28T05:40:15;4.1;;;2.31;;
36833;SDS011;48003;52.084;5.224;2023-02-28T05:41:52;5.6;;;2.6;;
36833;SDS011;48003;52.084;5.224;2023-02-28T05:43:28;4.41;;;3.0;;
36833;SDS011;48003;52.084;5.224;2023-02-28T05:45:05;6.5;;;2.9;;
36833;SDS011;48003;52.084;5.224;2023-02-28T05:48:17;7.5;;;3.1;;
36833;SDS011;48003;52.084;5.224;2023-02-28T05:49:53;4.61;;;2.8;;
36833;SDS011;48003;52.084;5.224;2023-02-28T05:51:30;4.2;;;2.9;;
36833;SDS011;48003;52.084;5.224;2023-02-28T05:54:42;5.2;;;3.2;;
36833;SDS011;48003;52.084;5.224;2023-02-28T05:56:18;6.1;;;3.2;;
36833;SDS011;48003;52.084;5.224;2023-02-28T05:57:54;4.61;;;2.7;;
36833;SDS011;48003;52.084;5.224;2023-02-28T06:01:30;7.6;;;3.0;;
36833;SDS011;48003;52.084;5.224;2023-02-28T06:03:09;7.0;;;3.1;;
36833;SDS011;48003;52.084;5.224;2023-02-28T06:04:45;7.4;;;3.3;;
36833;SDS011;48003;52.084;5.224;2023-02-28T06:06:22;6.9;;;3.1;;
36833;SDS011;48003;52.084;5.224;2023-02-28T06:09:34;6.4;;;3.2;;
36833;SDS011;48003;52.084;5.224;2023-02-28T06:11:11;5.5;;;3.4;;
36833;SDS011;48003;52.084;5.224;2023-02-28T06:12:48;5.6;;;3.3;;
36833;SDS011;48003;52.084;5.224;2023-02-28T06:14:24;6.6;;;3.8;;
36833;SDS011;48003;52.084;5.224;2023-02-28T06:17:37;7.8;;;3.9;;
36833;SDS011;48003;52.084;5.224;2023-02-28T06:19:13;7.5;;;4.0;;
36833;SDS011;48003;52.084;5.224;2023-02-28T06:20:52;6.1;;;3.9;;
36833;SDS011;48003;52.084;5.224;2023-02-28T06:24:04;6.7;;;4.0;;
36833;SDS011;48003;52.084;5.224;2023-02-28T06:25:44;7.2;;;4.0;;
36833;SDS011;48003;52.084;5.224;2023-02-28T06:27:20;8.2;;;4.41;;
36833;SDS011;48003;52.084;5.224;2023-02-28T06:28:57;8.0;;;4.1;;
36833;SDS011;48003;52.084;5.224;2023-02-28T06:32:09;8.81;;;4.41;;
36833;SDS011;48003;52.084;5.224;2023-02-28T06:33:45;6.9;;;4.2;;
36833;SDS011;48003;52.084;5.224;2023-02-28T06:35:22;8.4;;;3.9;;
36833;SDS011;48003;52.084;5.224;2023-02-28T06:38:36;6.0;;;4.1;;
36833;SDS011;48003;52.084;5.224;2023-02-28T06:40:14;8.6;;;4.3;;
36833;SDS011;48003;52.084;5.224;2023-02-28T06:41:51;5.7;;;4.1;;
36833;SDS011;48003;52.084;5.224;2023-02-28T06:45:06;5.7;;;4.1;;
36833;SDS011;48003;52.084;5.224;2023-02-28T06:46:43;9.31;;;4.8;;
36833;SDS011;48003;52.084;5.224;2023-02-28T06:49:56;7.1;;;4.3;;
36833;SDS011;48003;52.084;5.224;2023-02-28T06:53:09;12.3;;;4.41;;
36833;SDS011;48003;52.084;5.224;2023-02-28T06:54:45;6.5;;;4.2;;
36833;SDS011;48003;52.084;5.224;2023-02-28T06:56:21;6.9;;;4.3;;
36833;SDS011;48003;52.084;5.224;2023-02-28T06:59:34;6.9;;;4.41;;
36833;SDS011;48003;52.084;5.224;2023-02-28T07:01:10;7.0;;;4.5;;
36833;SDS011;48003;52.084;5.224;2023-02-28T07:02:49;8.1;;;4.2;;
36833;SDS011;48003;52.084;5.224;2023-02-28T07:06:01;8.0;;;4.7;;
36833;SDS011;48003;52.084;5.224;2023-02-28T07:07:38;7.1;;;4.5;;
36833;SDS011;48003;52.084;5.224;2023-02-28T07:09:15;6.7;;;4.5;;
36833;SDS011;48003;52.084;5.224;2023-02-28T07:10:52;7.0;;;4.41;;
36833;SDS011;48003;52.084;5.224;2023-02-28T07:14:05;8.71;;;4.61;;
36833;SDS011;48003;52.084;5.224;2023-02-28T07:15:41;6.1;;;3.9;;
36833;SDS011;48003;52.084;5.224;2023-02-28T07:17:17;6.8;;;4.61;;
36833;SDS011;48003;52.084;5.224;2023-02-28T07:20:29;7.9;;;4.7;;
36833;SDS011;48003;52.084;5.224;2023-02-28T07:22:07;11.3;;;4.8;;
36833;SDS011;48003;52.084;5.224;2023-02-28T07:23:43;7.6;;;4.5;;
36833;SDS011;48003;52.084;5.224;2023-02-28T07:26:56;8.81;;;4.91;;
36833;SDS011;48003;52.084;5.224;2023-02-28T07:28:33;8.0;;;5.11;;
36833;SDS011;48003;52.084;5.224;2023-02-28T07:30:09;7.6;;;4.91;;
36833;SDS011;48003;52.084;5.224;2023-02-28T07:31:46;9.21;;;5.11;;
36833;SDS011;48003;52.084;5.224;2023-02-28T07:34:58;7.5;;;5.5;;
36833;SDS011;48003;52.084;5.224;2023-02-28T07:36:35;10.6;;;5.3;;
36833;SDS011;48003;52.084;5.224;2023-02-28T07:38:11;7.6;;;4.7;;
36833;SDS011;48003;52.084;5.224;2023-02-28T07:41:23;9.4;;;5.4;;
36833;SDS011;48003;52.084;5.224;2023-02-28T07:42:59;7.9;;;4.61;;
36833;SDS011;48003;52.084;5.224;2023-02-28T07:44:36;8.31;;;4.91;;
36833;SDS011;48003;52.084;5.224;2023-02-28T07:47:51;10.0;;;6.2;;
36833;SDS011;48003;52.084;5.224;2023-02-28T07:49:29;9.31;;;5.4;;
36833;SDS011;48003;52.084;5.224;2023-02-28T07:51:05;7.9;;;4.61;;
36833;SDS011;48003;52.084;5.224;2023-02-28T07:52:41;6.8;;;4.91;;
36833;SDS011;48003;52.084;5.224;2023-02-28T07:55:54;6.5;;;4.5;;
36833;SDS011;48003;52.084;5.224;2023-02-28T07:57:31;8.31;;;5.0;;
36833;SDS011;48003;52.084;5.224;2023-02-28T07:59:07;7.3;;;4.61;;
36833;SDS011;48003;52.084;5.224;2023-02-28T08:02:20;7.3;;;4.61;;
36833;SDS011;48003;52.084;5.224;2023-02-28T08:03:56;8.5;;;4.8;;
36833;SDS011;48003;52.084;5.224;2023-02-28T08:05:32;8.81;;;4.7;;
36833;SDS011;48003;52.084;5.224;2023-02-28T08:08:44;10.21;;;4.61;;
36833;SDS011;48003;52.084;5.224;2023-02-28T08:10:20;7.7;;;4.91;;
36833;SDS011;48003;52.084;5.224;2023-02-28T08:11:57;9.4;;;5.11;;
36833;SDS011;48003;52.084;5.224;2023-02-28T08:13:33;10.3;;;5.6;;
36833;SDS011;48003;52.084;5.224;2023-02-28T08:16:46;9.9;;;5.6;;
36833;SDS011;48003;52.084;5.224;2023-02-28T08:18:23;11.9;;;5.3;;
36833;SDS011;48003;52.084;5.224;2023-02-28T08:19:59;7.7;;;5.0;;
36833;SDS011;48003;52.084;5.224;2023-02-28T08:23:12;7.3;;;4.8;;
36833;SDS011;48003;52.084;5.224;2023-02-28T08:24:49;8.1;;;4.61;;
36833;SDS011;48003;52.084;5.224;2023-02-28T08:26:25;8.1;;;4.61;;
36833;SDS011;48003;52.084;5.224;2023-02-28T08:29:37;8.81;;;4.3;;
36833;SDS011;48003;52.084;5.224;2023-02-28T08:31:15;6.2;;;3.9;;
36833;SDS011;48003;52.084;5.224;2023-02-28T08:32:53;8.4;;;3.9;;
36833;SDS011;48003;52.084;5.224;2023-02-28T08:34:29;6.7;;;3.7;;
36833;SDS011;48003;52.084;5.224;2023-02-28T08:37:43;7.9;;;3.8;;
36833;SDS011;48003;52.084;5.224;2023-02-28T08:39:19;8.0;;;3.8;;
36833;SDS011;48003;52.084;5.224;2023-02-28T08:40:57;7.1;;;3.6;;
36833;SDS011;48003;52.084;5.224;2023-02-28T08:44:12;9.0;;;4.1;;
36833;SDS011;48003;52.084;5.224;2023-02-28T08:45:50;9.0;;;4.1;;
36833;SDS011;48003;52.084;5.224;2023-02-28T08:47:27;7.3;;;3.4;;
36833;SDS011;48003;52.084;5.224;2023-02-28T08:50:39;5.6;;;3.3;;
36833;SDS011;48003;52.084;5.224;2023-02-28T08:52:15;6.1;;;4.1;;
36833;SDS011;48003;52.084;5.224;2023-02-28T08:53:53;8.81;;;4.2;;
36833;SDS011;48003;52.084;5.224;2023-02-28T08:55:30;5.6;;;3.2;;
36833;SDS011;48003;52.084;5.224;2023-02-28T08:58:42;5.5;;;3.1;;
36833;SDS011;48003;52.084;5.224;2023-02-28T09:00:21;6.3;;;3.4;;
36833;SDS011;48003;52.084;5.224;2023-02-28T09:01:57;5.8;;;3.1;;
36833;SDS011;48003;52.084;5.224;2023-02-28T09:05:10;5.9;;;3.3;;
36833;SDS011;48003;52.084;5.224;2023-02-28T09:06:46;4.7;;;3.0;;
36833;SDS011;48003;52.084;5.224;2023-02-28T09:08:22;5.3;;;2.9;;
36833;SDS011;48003;52.084;5.224;2023-02-28T09:11:35;4.91;;;3.1;;
36833;SDS011;48003;52.084;5.224;2023-02-28T09:13:12;4.5;;;2.9;;
36833;SDS011;48003;52.084;5.224;2023-02-28T09:14:48;5.0;;;3.1;;
36833;SDS011;48003;52.084;5.224;2023-02-28T09:16:25;6.2;;;3.2;;
36833;SDS011;48003;52.084;5.224;2023-02-28T09:19:37;4.41;;;2.8;;
36833;SDS011;48003;52.084;5.224;2023-02-28T09:21:15;3.6;;;2.7;;
36833;SDS011;48003;52.084;5.224;2023-02-28T09:22:52;5.9;;;2.9;;
36833;SDS011;48003;52.084;5.224;2023-02-28T09:26:04;6.1;;;2.8;;
36833;SDS011;48003;52.084;5.224;2023-02-28T09:27:42;5.2;;;2.9;;
36833;SDS011;48003;52.084;5.224;2023-02-28T09:29:18;4.0;;;2.5;;
36833;SDS011;48003;52.084;5.224;2023-02-28T09:32:31;3.5;;;2.4;;
36833;SDS011;48003;52.084;5.224;2023-02-28T09:34:07;4.7;;;2.4;;
36833;SDS011;48003;52.084;5.224;2023-02-28T09:35:43;9.0;;;4.41;;
36833;SDS011;48003;52.084;5.224;2023-02-28T09:37:19;4.5;;;2.7;;
36833;SDS011;48003;52.084;5.224;2023-02-28T09:40:32;4.41;;;2.9;;
36833;SDS011;48003;52.084;5.224;2023-02-28T09:42:18;4.1;;;2.4;;
36833;SDS011;48003;52.084;5.224;2023-02-28T09:44:05;4.8;;;2.5;;
36833;SDS011;48003;52.084;5.224;2023-02-28T09:45:51;3.2;;;2.21;;
36833;SDS011;48003;52.084;5.224;2023-02-28T09:49:12;3.7;;;2.1;;
36833;SDS011;48003;52.084;5.224;2023-02-28T09:50:52;3.9;;;2.21;;
36833;SDS011;48003;52.084;5.224;2023-02-28T09:52:36;4.7;;;2.21;;
36833;SDS011;48003;52.084;5.224;2023-02-28T09:54:14;3.7;;;2.0;;
36833;SDS011;48003;52.084;5.224;2023-02-28T09:57:35;5.3;;;1.9;;
36833;SDS011;48003;52.084;5.224;2023-02-28T09:59:18;2.4;;;1.7;;
36833;SDS011;48003;52.084;5.224;2023-02-28T10:01:19;1.9;;;1.11;;
36833;SDS011;48003;52.084;5.224;2023-02-28T10:03:12;1.8;;;1.2;;
36833;SDS011;48003;52.084;5.224;2023-02-28T10:05:02;3.3;;;1.2;;
36833;SDS011;48003;52.084;5.224;2023-02-28T10:06:44;2.1;;;1.11;;
36833;SDS011;48003;52.084;5.224;2023-02-28T10:10:06;3.7;;;1.3;;
36833;SDS011;48003;52.084;5.224;2023-02-28T10:11:57;2.6;;;1.6;;
36833;SDS011;48003;52.084;5.224;2023-02-28T10:13:42;2.6;;;1.11;;
36833;SDS011;48003;52.084;5.224;2023-02-28T10:15:28;3.1;;;1.2;;
36833;SDS011;48003;52.084;5.224;2023-02-28T10:17:08;2.5;;;1.3;;
36833;SDS011;48003;52.084;5.224;2023-02-28T10:20:35;2.31;;;1.3;;
36833;SDS011;48003;52.084;5.224;2023-02-28T10:22:14;2.5;;;1.11;;
36833;SDS011;48003;52.084;5.224;2023-02-28T10:24:02;3.1;;;1.2;;
36833;SDS011;48003;52.084;5.224;2023-02-28T10:25:54;4.41;;;1.4;;
36833;SDS011;48003;52.084;5.224;2023-02-28T10:27:34;2.7;;;1.4;;
36833;SDS011;48003;52.084;5.224;2023-02-28T10:30:48;2.8;;;1.4;;
36833;SDS011;48003;52.084;5.224;2023-02-28T10:32:26;2.4;;;1.3;;
36833;SDS011;48003;52.084;5.224;2023-02-28T10:34:07;1.9;;;1.3;;
36833;SDS011;48003;52.084;5.224;2023-02-28T10:37:25;3.7;;;1.7;;
36833;SDS011;48003;52.084;5.224;2023-02-28T10:39:01;2.31;;;1.5;;
36833;SDS011;48003;52.084;5.224;2023-02-28T10:41:12;4.8;;;2.6;;
36833;SDS011;48003;52.084;5.224;2023-02-28T10:42:56;5.4;;;2.21;;
36833;SDS011;48003;52.084;5.224;2023-02-28T10:44:34;3.1;;;1.5;;
36833;SDS011;48003;52.084;5.224;2023-02-28T10:47:52;2.31;;;1.2;;
36833;SDS011;48003;52.084;5.224;2023-02-28T10:49:30;2.4;;;1.4;;
36833;SDS011;48003;52.084;5.224;2023-02-28T10:51:07;2.8;;;1.2;;
36833;SDS011;48003;52.084;5.224;2023-02-28T10:52:46;2.9;;;1.3;;
36833;SDS011;48003;52.084;5.224;2023-02-28T10:56:04;4.7;;;1.4;;
36833;SDS011;48003;52.084;5.224;2023-02-28T10:57:49;3.3;;;1.3;;
36833;SDS011;48003;52.084;5.224;2023-02-28T10:59:27;2.31;;;1.4;;
36833;SDS011;48003;52.084;5.224;2023-02-28T11:01:10;3.3;;;1.3;;
36833;SDS011;48003;52.084;5.224;2023-02-28T11:04:34;2.5;;;1.3;;
36833;SDS011;48003;52.084;5.224;2023-02-28T11:06:15;3.2;;;1.7;;
36833;SDS011;48003;52.084;5.224;2023-02-28T11:07:55;2.8;;;1.4;;
36833;SDS011;48003;52.084;5.224;2023-02-28T11:09:34;1.8;;;1.2;;
36833;SDS011;48003;52.084;5.224;2023-02-28T11:12:53;3.4;;;1.7;;
36833;SDS011;48003;52.084;5.224;2023-02-28T11:14:31;3.2;;;1.2;;
36833;SDS011;48003;52.084;5.224;2023-02-28T11:16:30;2.9;;;1.3;;
36833;SDS011;48003;52.084;5.224;2023-02-28T11:18:18;2.6;;;1.4;;
36833;SDS011;48003;52.084;5.224;2023-02-28T11:19:59;3.0;;;1.4;;
36833;SDS011;48003;52.084;5.224;2023-02-28T11:23:24;2.4;;;1.5;;
36833;SDS011;48003;52.084;5.224;2023-02-28T11:25:06;3.6;;;1.5;;
36833;SDS011;48003;52.084;5.224;2023-02-28T11:26:46;3.1;;;1.5;;
36833;SDS011;48003;52.084;5.224;2023-02-28T11:28:26;2.21;;;1.3;;
36833;SDS011;48003;52.084;5.224;2023-02-28T11:32:05;2.0;;;1.3;;
36833;SDS011;48003;52.084;5.224;2023-02-28T11:33:48;2.1;;;1.3;;
36833;SDS011;48003;52.084;5.224;2023-02-28T11:35:28;2.8;;;1.3;;
36833;SDS011;48003;52.084;5.224;2023-02-28T11:37:12;2.1;;;1.2;;
36833;SDS011;48003;52.084;5.224;2023-02-28T11:38:51;2.1;;;1.4;;
36833;SDS011;48003;52.084;5.224;2023-02-28T11:42:23;2.6;;;1.4;;
36833;SDS011;48003;52.084;5.224;2023-02-28T11:45:22;3.6;;;1.5;;
36833;SDS011;48003;52.084;5.224;2023-02-28T11:47:15;1.6;;;1.3;;
36833;SDS011;48003;52.084;5.224;2023-02-28T11:50:56;3.5;;;1.5;;
36833;SDS011;48003;52.084;5.224;2023-02-28T11:52:43;2.31;;;1.4;;
36833;SDS011;48003;52.084;5.224;2023-02-28T11:54:27;2.6;;;1.4;;
36833;SDS011;48003;52.084;5.224;2023-02-28T11:56:29;3.2;;;1.4;;
36833;SDS011;48003;52.084;5.224;2023-02-28T11:58:14;2.21;;;1.3;;
36833;SDS011;48003;52.084;5.224;2023-02-28T12:00:29;2.9;;;1.4;;
36833;SDS011;48003;52.084;5.224;2023-02-28T12:02:22;1.8;;;1.3;;
36833;SDS011;48003;52.084;5.224;2023-02-28T12:04:10;1.8;;;1.2;;
36833;SDS011;48003;52.084;5.224;2023-02-28T12:05:58;2.4;;;1.5;;
36833;SDS011;48003;52.084;5.224;2023-02-28T12:07:56;2.0;;;1.3;;
36833;SDS011;48003;52.084;5.224;2023-02-28T12:11:40;1.6;;;1.2;;
36833;SDS011;48003;52.084;5.224;2023-02-28T12:13:28;2.4;;;1.4;;
36833;SDS011;48003;52.084;5.224;2023-02-28T12:15:17;2.7;;;1.2;;
36833;SDS011;48003;52.084;5.224;2023-02-28T12:18:26;3.7;;;1.3;;
36833;SDS011;48003;52.084;5.224;2023-02-28T12:20:29;4.0;;;1.4;;
36833;SDS011;48003;52.084;5.224;2023-02-28T12:24:12;2.0;;;1.2;;
36833;SDS011;48003;52.084;5.224;2023-02-28T12:26:28;3.4;;;1.5;;
36833;SDS011;48003;52.084;5.224;2023-02-28T12:28:13;2.0;;;1.4;;
36833;SDS011;48003;52.084;5.224;2023-02-28T12:29:54;2.4;;;1.3;;
36833;SDS011;48003;52.084;5.224;2023-02-28T12:31:35;2.8;;;1.4;;
36833;SDS011;48003;52.084;5.224;2023-02-28T12:33:15;1.9;;;1.2;;
36833;SDS011;48003;52.084;5.224;2023-02-28T12:36:40;2.21;;;1.2;;
36833;SDS011;48003;52.084;5.224;2023-02-28T12:38:19;3.6;;;2.0;;
36833;SDS011;48003;52.084;5.224;2023-02-28T12:40:01;2.4;;;1.4;;
36833;SDS011;48003;52.084;5.224;2023-02-28T12:41:41;3.2;;;1.5;;
36833;SDS011;48003;52.084;5.224;2023-02-28T12:45:09;2.31;;;1.11;;
36833;SDS011;48003;52.084;5.224;2023-02-28T12:46:51;2.0;;;1.0;;
36833;SDS011;48003;52.084;5.224;2023-02-28T12:48:38;2.8;;;1.4;;
36833;SDS011;48003;52.084;5.224;2023-02-28T12:50:18;3.3;;;1.4;;
36833;SDS011;48003;52.084;5.224;2023-02-28T12:51:56;2.0;;;1.0;;
36833;SDS011;48003;52.084;5.224;2023-02-28T12:55:27;2.21;;;1.3;;
36833;SDS011;48003;52.084;5.224;2023-02-28T12:57:15;2.31;;;1.2;;
36833;SDS011;48003;52.084;5.224;2023-02-28T12:59:01;2.5;;;1.3;;
36833;SDS011;48003;52.084;5.224;2023-02-28T13:00:48;3.1;;;1.11;;
36833;SDS011;48003;52.084;5.224;2023-02-28T13:03:41;2.31;;;1.2;;
36833;SDS011;48003;52.084;5.224;2023-02-28T13:06:33;2.5;;;1.3;;
36833;SDS011;48003;52.084;5.224;2023-02-28T13:08:23;2.1;;;1.2;;
36833;SDS011;48003;52.084;5.224;2023-02-28T13:10:38;2.7;;;1.11;;
36833;SDS011;48003;52.084;5.224;2023-02-28T13:12:20;2.4;;;1.2;;